sensor_id;sensor_type;location;lat;lon;timestamp;P1;durP1;ratioP1;P2;durP2;ratioP2
19137;SDS011;68178;52.188;5.598;2023-06-10T00:01:50;5.65;;;4.88;;
19137;SDS011;68178;52.188;5.598;2023-06-10T00:04:16;6.95;;;5.07;;
19137;SDS011;68178;52.188;5.598;2023-06-10T00:06:45;5.07;;;4.18;;
19137;SDS011;68178;52.188;5.598;2023-06-10T00:09:13;8.85;;;5.03;;
19137;SDS011;68178;52.188;5.598;2023-06-10T00:11:39;6.15;;;4.63;;
19137;SDS011;68178;52.188;5.598;2023-06-10T00:14:05;5.07;;;4.57;;
19137;SDS011;68178;52.188;5.598;2023-06-10T00:16:31;6.88;;;4.88;;
19137;SDS011;68178;52.188;5.598;2023-06-10T00:18:58;6.60;;;4.43;;
19137;SDS011;68178;52.188;5.598;2023-06-10T00:21:26;6.72;;;4.68;;
19137;SDS011;68178;52.188;5.598;2023-06-10T00:23:52;5.05;;;4.50;;
19137;SDS011;68178;52.188;5.598;2023-06-10T00:26:20;6.50;;;4.88;;
19137;SDS011;68178;52.188;5.598;2023-06-10T00:28:49;10.07;;;5.00;;
19137;SDS011;68178;52.188;5.598;2023-06-10T00:31:15;6.57;;;4.40;;
19137;SDS011;68178;52.188;5.598;2023-06-10T00:33:41;5.43;;;4.43;;
19137;SDS011;68178;52.188;5.598;2023-06-10T00:36:06;5.20;;;4.70;;
19137;SDS011;68178;52.188;5.598;2023-06-10T00:38:32;5.75;;;4.18;;
19137;SDS011;68178;52.188;5.598;2023-06-10T00:40:58;6.40;;;4.65;;
19137;SDS011;68178;52.188;5.598;2023-06-10T00:43:23;7.53;;;4.53;;
19137;SDS011;68178;52.188;5.598;2023-06-10T00:45:49;7.85;;;4.78;;
19137;SDS011;68178;52.188;5.598;2023-06-10T00:48:16;5.57;;;4.88;;
19137;SDS011;68178;52.188;5.598;2023-06-10T00:50:42;4.93;;;4.32;;
19137;SDS011;68178;52.188;5.598;2023-06-10T00:53:08;6.63;;;4.10;;
19137;SDS011;68178;52.188;5.598;2023-06-10T00:55:35;5.38;;;4.70;;
19137;SDS011;68178;52.188;5.598;2023-06-10T00:58:01;6.45;;;4.22;;
19137;SDS011;68178;52.188;5.598;2023-06-10T01:00:28;5.68;;;4.75;;
19137;SDS011;68178;52.188;5.598;2023-06-10T01:02:54;7.13;;;5.25;;
19137;SDS011;68178;52.188;5.598;2023-06-10T01:05:20;5.50;;;4.15;;
19137;SDS011;68178;52.188;5.598;2023-06-10T01:07:56;7.93;;;4.57;;
19137;SDS011;68178;52.188;5.598;2023-06-10T01:10:45;6.35;;;4.75;;
19137;SDS011;68178;52.188;5.598;2023-06-10T01:13:25;8.95;;;4.90;;
19137;SDS011;68178;52.188;5.598;2023-06-10T01:15:54;5.18;;;4.68;;
19137;SDS011;68178;52.188;5.598;2023-06-10T01:18:21;5.28;;;4.78;;
19137;SDS011;68178;52.188;5.598;2023-06-10T01:20:47;6.63;;;4.72;;
19137;SDS011;68178;52.188;5.598;2023-06-10T01:23:13;6.63;;;4.72;;
19137;SDS011;68178;52.188;5.598;2023-06-10T01:25:41;6.53;;;4.93;;
19137;SDS011;68178;52.188;5.598;2023-06-10T01:31:09;7.40;;;5.43;;
19137;SDS011;68178;52.188;5.598;2023-06-10T01:33:41;7.00;;;5.53;;
19137;SDS011;68178;52.188;5.598;2023-06-10T01:36:10;6.47;;;5.38;;
19137;SDS011;68178;52.188;5.598;2023-06-10T01:38:39;5.93;;;4.82;;
19137;SDS011;68178;52.188;5.598;2023-06-10T01:41:07;7.00;;;4.38;;
19137;SDS011;68178;52.188;5.598;2023-06-10T01:43:36;6.35;;;4.68;;
19137;SDS011;68178;52.188;5.598;2023-06-10T01:46:03;7.63;;;5.50;;
19137;SDS011;68178;52.188;5.598;2023-06-10T01:48:28;6.40;;;5.25;;
19137;SDS011;68178;52.188;5.598;2023-06-10T01:50:54;8.50;;;5.35;;
19137;SDS011;68178;52.188;5.598;2023-06-10T01:53:21;8.40;;;5.18;;
19137;SDS011;68178;52.188;5.598;2023-06-10T01:55:47;6.93;;;5.20;;
19137;SDS011;68178;52.188;5.598;2023-06-10T01:58:12;9.43;;;5.60;;
19137;SDS011;68178;52.188;5.598;2023-06-10T02:00:38;6.22;;;5.30;;
19137;SDS011;68178;52.188;5.598;2023-06-10T02:03:04;7.43;;;5.53;;
19137;SDS011;68178;52.188;5.598;2023-06-10T02:05:29;6.05;;;5.10;;
19137;SDS011;68178;52.188;5.598;2023-06-10T02:07:55;7.00;;;5.25;;
19137;SDS011;68178;52.188;5.598;2023-06-10T02:10:21;8.60;;;5.95;;
19137;SDS011;68178;52.188;5.598;2023-06-10T02:12:46;7.28;;;5.72;;
19137;SDS011;68178;52.188;5.598;2023-06-10T02:15:12;7.57;;;5.00;;
19137;SDS011;68178;52.188;5.598;2023-06-10T02:17:37;7.95;;;4.57;;
19137;SDS011;68178;52.188;5.598;2023-06-10T02:20:03;7.75;;;5.03;;
19137;SDS011;68178;52.188;5.598;2023-06-10T02:22:32;5.97;;;5.22;;
19137;SDS011;68178;52.188;5.598;2023-06-10T02:24:58;7.05;;;5.50;;
19137;SDS011;68178;52.188;5.598;2023-06-10T02:27:23;6.93;;;5.30;;
19137;SDS011;68178;52.188;5.598;2023-06-10T02:29:49;5.82;;;5.00;;
19137;SDS011;68178;52.188;5.598;2023-06-10T02:32:15;5.45;;;4.93;;
19137;SDS011;68178;52.188;5.598;2023-06-10T02:34:40;7.47;;;5.05;;
19137;SDS011;68178;52.188;5.598;2023-06-10T02:37:07;7.78;;;5.57;;
19137;SDS011;68178;52.188;5.598;2023-06-10T02:39:33;8.63;;;5.40;;
19137;SDS011;68178;52.188;5.598;2023-06-10T02:41:59;7.65;;;5.35;;
19137;SDS011;68178;52.188;5.598;2023-06-10T02:44:24;7.18;;;5.05;;
19137;SDS011;68178;52.188;5.598;2023-06-10T02:46:50;7.05;;;5.20;;
19137;SDS011;68178;52.188;5.598;2023-06-10T02:49:16;8.07;;;5.15;;
19137;SDS011;68178;52.188;5.598;2023-06-10T02:51:41;7.85;;;5.32;;
19137;SDS011;68178;52.188;5.598;2023-06-10T02:54:07;9.07;;;4.97;;
19137;SDS011;68178;52.188;5.598;2023-06-10T02:56:32;6.82;;;5.50;;
19137;SDS011;68178;52.188;5.598;2023-06-10T02:58:58;8.10;;;6.00;;
19137;SDS011;68178;52.188;5.598;2023-06-10T03:01:24;8.18;;;5.45;;
19137;SDS011;68178;52.188;5.598;2023-06-10T03:03:50;8.90;;;5.35;;
19137;SDS011;68178;52.188;5.598;2023-06-10T03:06:16;8.18;;;5.22;;
19137;SDS011;68178;52.188;5.598;2023-06-10T03:08:42;8.77;;;5.18;;
19137;SDS011;68178;52.188;5.598;2023-06-10T03:11:07;7.88;;;5.25;;
19137;SDS011;68178;52.188;5.598;2023-06-10T03:13:33;7.22;;;5.72;;
19137;SDS011;68178;52.188;5.598;2023-06-10T03:15:58;9.10;;;5.70;;
19137;SDS011;68178;52.188;5.598;2023-06-10T03:18:25;10.02;;;5.63;;
19137;SDS011;68178;52.188;5.598;2023-06-10T03:20:52;8.15;;;5.40;;
19137;SDS011;68178;52.188;5.598;2023-06-10T03:23:18;7.70;;;5.70;;
19137;SDS011;68178;52.188;5.598;2023-06-10T03:25:44;9.35;;;5.75;;
19137;SDS011;68178;52.188;5.598;2023-06-10T03:28:10;7.18;;;5.55;;
19137;SDS011;68178;52.188;5.598;2023-06-10T03:30:36;7.97;;;5.32;;
19137;SDS011;68178;52.188;5.598;2023-06-10T03:33:02;10.85;;;5.88;;
19137;SDS011;68178;52.188;5.598;2023-06-10T03:35:27;8.30;;;5.68;;
19137;SDS011;68178;52.188;5.598;2023-06-10T03:37:53;7.40;;;5.82;;
19137;SDS011;68178;52.188;5.598;2023-06-10T03:40:18;8.70;;;5.72;;
19137;SDS011;68178;52.188;5.598;2023-06-10T03:42:44;7.18;;;5.35;;
19137;SDS011;68178;52.188;5.598;2023-06-10T03:45:10;8.48;;;5.30;;
19137;SDS011;68178;52.188;5.598;2023-06-10T03:47:36;9.30;;;5.50;;
19137;SDS011;68178;52.188;5.598;2023-06-10T03:50:05;10.65;;;5.93;;
19137;SDS011;68178;52.188;5.598;2023-06-10T03:52:33;8.80;;;5.85;;
19137;SDS011;68178;52.188;5.598;2023-06-10T03:54:58;8.43;;;5.90;;
19137;SDS011;68178;52.188;5.598;2023-06-10T03:57:24;8.10;;;5.68;;
19137;SDS011;68178;52.188;5.598;2023-06-10T03:59:50;9.45;;;5.35;;
19137;SDS011;68178;52.188;5.598;2023-06-10T04:02:16;6.82;;;5.95;;
19137;SDS011;68178;52.188;5.598;2023-06-10T04:04:41;7.82;;;5.32;;
19137;SDS011;68178;52.188;5.598;2023-06-10T04:07:07;9.25;;;6.07;;
19137;SDS011;68178;52.188;5.598;2023-06-10T04:09:33;8.25;;;5.43;;
19137;SDS011;68178;52.188;5.598;2023-06-10T04:12:00;9.32;;;6.00;;
19137;SDS011;68178;52.188;5.598;2023-06-10T04:14:26;11.93;;;5.97;;
19137;SDS011;68178;52.188;5.598;2023-06-10T04:16:52;9.90;;;5.95;;
19137;SDS011;68178;52.188;5.598;2023-06-10T04:19:18;10.10;;;6.18;;
19137;SDS011;68178;52.188;5.598;2023-06-10T04:21:44;6.63;;;5.38;;
19137;SDS011;68178;52.188;5.598;2023-06-10T04:24:10;8.98;;;6.10;;
19137;SDS011;68178;52.188;5.598;2023-06-10T04:26:36;8.23;;;5.85;;
19137;SDS011;68178;52.188;5.598;2023-06-10T04:29:02;8.57;;;5.63;;
19137;SDS011;68178;52.188;5.598;2023-06-10T04:31:27;9.07;;;5.57;;
19137;SDS011;68178;52.188;5.598;2023-06-10T04:33:53;9.43;;;5.97;;
19137;SDS011;68178;52.188;5.598;2023-06-10T04:36:19;10.30;;;6.05;;
19137;SDS011;68178;52.188;5.598;2023-06-10T04:38:44;6.80;;;5.53;;
19137;SDS011;68178;52.188;5.598;2023-06-10T04:41:10;7.20;;;5.35;;
19137;SDS011;68178;52.188;5.598;2023-06-10T04:43:36;7.65;;;6.05;;
19137;SDS011;68178;52.188;5.598;2023-06-10T04:46:02;7.75;;;5.88;;
19137;SDS011;68178;52.188;5.598;2023-06-10T04:48:27;8.13;;;5.45;;
19137;SDS011;68178;52.188;5.598;2023-06-10T04:50:53;7.30;;;6.15;;
19137;SDS011;68178;52.188;5.598;2023-06-10T04:53:18;10.35;;;6.30;;
19137;SDS011;68178;52.188;5.598;2023-06-10T04:55:45;14.15;;;6.93;;
19137;SDS011;68178;52.188;5.598;2023-06-10T04:58:11;7.97;;;6.10;;
19137;SDS011;68178;52.188;5.598;2023-06-10T05:00:37;7.18;;;5.78;;
19137;SDS011;68178;52.188;5.598;2023-06-10T05:03:02;9.25;;;6.13;;
19137;SDS011;68178;52.188;5.598;2023-06-10T05:05:28;6.90;;;5.63;;
19137;SDS011;68178;52.188;5.598;2023-06-10T05:07:53;12.15;;;5.97;;
19137;SDS011;68178;52.188;5.598;2023-06-10T05:10:19;8.68;;;6.10;;
19137;SDS011;68178;52.188;5.598;2023-06-10T05:12:45;6.93;;;5.80;;
19137;SDS011;68178;52.188;5.598;2023-06-10T05:15:10;7.65;;;5.68;;
19137;SDS011;68178;52.188;5.598;2023-06-10T05:17:36;8.32;;;6.20;;
19137;SDS011;68178;52.188;5.598;2023-06-10T05:20:02;7.80;;;5.63;;
19137;SDS011;68178;52.188;5.598;2023-06-10T05:22:28;8.02;;;5.70;;
19137;SDS011;68178;52.188;5.598;2023-06-10T05:24:54;11.77;;;5.65;;
19137;SDS011;68178;52.188;5.598;2023-06-10T05:27:19;9.98;;;6.30;;
19137;SDS011;68178;52.188;5.598;2023-06-10T05:29:46;9.57;;;6.03;;
19137;SDS011;68178;52.188;5.598;2023-06-10T05:32:14;7.82;;;6.32;;
19137;SDS011;68178;52.188;5.598;2023-06-10T05:34:40;9.57;;;6.15;;
19137;SDS011;68178;52.188;5.598;2023-06-10T05:37:05;6.65;;;5.82;;
19137;SDS011;68178;52.188;5.598;2023-06-10T05:39:31;9.32;;;5.57;;
19137;SDS011;68178;52.188;5.598;2023-06-10T05:41:56;6.78;;;5.53;;
19137;SDS011;68178;52.188;5.598;2023-06-10T05:44:24;8.32;;;5.53;;
19137;SDS011;68178;52.188;5.598;2023-06-10T05:46:50;9.73;;;5.82;;
19137;SDS011;68178;52.188;5.598;2023-06-10T05:49:16;9.45;;;6.07;;
19137;SDS011;68178;52.188;5.598;2023-06-10T05:51:41;10.18;;;6.00;;
19137;SDS011;68178;52.188;5.598;2023-06-10T05:54:07;7.85;;;5.82;;
19137;SDS011;68178;52.188;5.598;2023-06-10T05:56:32;7.47;;;5.97;;
19137;SDS011;68178;52.188;5.598;2023-06-10T05:58:58;8.05;;;5.45;;
19137;SDS011;68178;52.188;5.598;2023-06-10T06:01:24;9.80;;;6.55;;
19137;SDS011;68178;52.188;5.598;2023-06-10T06:03:49;12.15;;;5.93;;
19137;SDS011;68178;52.188;5.598;2023-06-10T06:06:15;6.80;;;5.70;;
19137;SDS011;68178;52.188;5.598;2023-06-10T06:08:41;10.57;;;5.68;;
19137;SDS011;68178;52.188;5.598;2023-06-10T06:11:06;6.70;;;5.38;;
19137;SDS011;68178;52.188;5.598;2023-06-10T06:13:32;6.65;;;5.60;;
19137;SDS011;68178;52.188;5.598;2023-06-10T06:15:57;8.80;;;5.43;;
19137;SDS011;68178;52.188;5.598;2023-06-10T06:18:23;9.70;;;5.53;;
19137;SDS011;68178;52.188;5.598;2023-06-10T06:20:49;7.60;;;5.55;;
19137;SDS011;68178;52.188;5.598;2023-06-10T06:23:15;11.25;;;5.82;;
19137;SDS011;68178;52.188;5.598;2023-06-10T06:25:40;6.90;;;5.60;;
19137;SDS011;68178;52.188;5.598;2023-06-10T06:28:06;9.30;;;5.45;;
19137;SDS011;68178;52.188;5.598;2023-06-10T06:30:34;6.70;;;5.63;;
19137;SDS011;68178;52.188;5.598;2023-06-10T06:33:00;12.52;;;5.72;;
19137;SDS011;68178;52.188;5.598;2023-06-10T06:35:26;7.40;;;5.55;;
19137;SDS011;68178;52.188;5.598;2023-06-10T06:37:51;8.90;;;5.82;;
19137;SDS011;68178;52.188;5.598;2023-06-10T06:40:17;9.15;;;6.18;;
19137;SDS011;68178;52.188;5.598;2023-06-10T06:42:42;7.38;;;5.53;;
19137;SDS011;68178;52.188;5.598;2023-06-10T06:45:08;6.00;;;5.13;;
19137;SDS011;68178;52.188;5.598;2023-06-10T06:47:34;6.47;;;5.78;;
19137;SDS011;68178;52.188;5.598;2023-06-10T06:50:00;10.52;;;5.40;;
19137;SDS011;68178;52.188;5.598;2023-06-10T06:52:25;9.55;;;5.47;;
19137;SDS011;68178;52.188;5.598;2023-06-10T06:54:51;6.63;;;5.35;;
19137;SDS011;68178;52.188;5.598;2023-06-10T06:57:16;8.80;;;5.75;;
19137;SDS011;68178;52.188;5.598;2023-06-10T06:59:42;12.20;;;5.78;;
19137;SDS011;68178;52.188;5.598;2023-06-10T07:02:07;9.13;;;5.57;;
19137;SDS011;68178;52.188;5.598;2023-06-10T07:04:33;10.82;;;6.28;;
19137;SDS011;68178;52.188;5.598;2023-06-10T07:06:58;9.80;;;5.32;;
19137;SDS011;68178;52.188;5.598;2023-06-10T07:09:24;9.95;;;5.25;;
19137;SDS011;68178;52.188;5.598;2023-06-10T07:11:49;6.53;;;5.10;;
19137;SDS011;68178;52.188;5.598;2023-06-10T07:14:15;7.53;;;5.82;;
19137;SDS011;68178;52.188;5.598;2023-06-10T07:16:40;6.43;;;5.25;;
19137;SDS011;68178;52.188;5.598;2023-06-10T07:19:06;7.47;;;5.40;;
19137;SDS011;68178;52.188;5.598;2023-06-10T07:21:32;5.82;;;5.13;;
19137;SDS011;68178;52.188;5.598;2023-06-10T07:23:58;11.18;;;5.93;;
19137;SDS011;68178;52.188;5.598;2023-06-10T07:26:24;10.98;;;5.53;;
19137;SDS011;68178;52.188;5.598;2023-06-10T07:28:50;7.32;;;5.53;;
19137;SDS011;68178;52.188;5.598;2023-06-10T07:31:16;5.78;;;5.13;;
19137;SDS011;68178;52.188;5.598;2023-06-10T07:33:42;7.80;;;5.28;;
19137;SDS011;68178;52.188;5.598;2023-06-10T07:36:08;5.93;;;5.10;;
19137;SDS011;68178;52.188;5.598;2023-06-10T07:38:34;8.65;;;5.07;;
19137;SDS011;68178;52.188;5.598;2023-06-10T07:41:01;10.32;;;5.43;;
19137;SDS011;68178;52.188;5.598;2023-06-10T07:43:27;7.47;;;5.75;;
19137;SDS011;68178;52.188;5.598;2023-06-10T07:45:52;13.48;;;5.60;;
19137;SDS011;68178;52.188;5.598;2023-06-10T07:48:18;9.38;;;5.32;;
19137;SDS011;68178;52.188;5.598;2023-06-10T07:50:43;9.88;;;5.13;;
19137;SDS011;68178;52.188;5.598;2023-06-10T07:53:09;9.27;;;5.22;;
19137;SDS011;68178;52.188;5.598;2023-06-10T07:55:35;6.65;;;4.90;;
19137;SDS011;68178;52.188;5.598;2023-06-10T07:58:00;6.40;;;5.70;;
19137;SDS011;68178;52.188;5.598;2023-06-10T08:00:26;10.73;;;5.47;;
19137;SDS011;68178;52.188;5.598;2023-06-10T08:02:51;7.65;;;5.60;;
19137;SDS011;68178;52.188;5.598;2023-06-10T08:05:17;11.35;;;5.75;;
19137;SDS011;68178;52.188;5.598;2023-06-10T08:07:43;6.03;;;5.18;;
19137;SDS011;68178;52.188;5.598;2023-06-10T08:10:09;13.48;;;6.10;;
19137;SDS011;68178;52.188;5.598;2023-06-10T08:12:35;7.68;;;4.85;;
19137;SDS011;68178;52.188;5.598;2023-06-10T08:15:02;5.88;;;4.93;;
19137;SDS011;68178;52.188;5.598;2023-06-10T08:17:29;9.07;;;4.75;;
19137;SDS011;68178;52.188;5.598;2023-06-10T08:19:55;5.95;;;5.30;;
19137;SDS011;68178;52.188;5.598;2023-06-10T08:22:20;6.10;;;4.65;;
19137;SDS011;68178;52.188;5.598;2023-06-10T08:24:46;8.20;;;5.70;;
19137;SDS011;68178;52.188;5.598;2023-06-10T08:27:12;9.77;;;5.35;;
19137;SDS011;68178;52.188;5.598;2023-06-10T08:29:37;7.20;;;4.72;;
19137;SDS011;68178;52.188;5.598;2023-06-10T08:32:04;6.30;;;5.32;;
19137;SDS011;68178;52.188;5.598;2023-06-10T08:34:30;7.20;;;5.80;;
19137;SDS011;68178;52.188;5.598;2023-06-10T08:36:58;6.40;;;5.55;;
19137;SDS011;68178;52.188;5.598;2023-06-10T08:39:23;5.55;;;5.00;;
19137;SDS011;68178;52.188;5.598;2023-06-10T08:41:51;7.05;;;5.25;;
19137;SDS011;68178;52.188;5.598;2023-06-10T08:44:30;6.82;;;5.05;;
19137;SDS011;68178;52.188;5.598;2023-06-10T08:46:58;6.75;;;5.10;;
19137;SDS011;68178;52.188;5.598;2023-06-10T08:49:26;5.90;;;5.03;;
19137;SDS011;68178;52.188;5.598;2023-06-10T08:51:56;6.32;;;5.43;;
19137;SDS011;68178;52.188;5.598;2023-06-10T08:54:25;5.47;;;4.97;;
19137;SDS011;68178;52.188;5.598;2023-06-10T08:56:53;7.15;;;5.18;;
19137;SDS011;68178;52.188;5.598;2023-06-10T08:59:22;7.00;;;5.03;;
19137;SDS011;68178;52.188;5.598;2023-06-10T09:01:49;6.28;;;5.07;;
19137;SDS011;68178;52.188;5.598;2023-06-10T09:04:15;5.78;;;4.63;;
19137;SDS011;68178;52.188;5.598;2023-06-10T09:06:42;8.40;;;4.45;;
19137;SDS011;68178;52.188;5.598;2023-06-10T09:09:09;6.38;;;4.55;;
19137;SDS011;68178;52.188;5.598;2023-06-10T09:11:35;7.90;;;5.22;;
19137;SDS011;68178;52.188;5.598;2023-06-10T09:14:02;9.68;;;5.47;;
19137;SDS011;68178;52.188;5.598;2023-06-10T09:16:28;6.35;;;4.75;;
19137;SDS011;68178;52.188;5.598;2023-06-10T09:18:53;6.05;;;5.03;;
19137;SDS011;68178;52.188;5.598;2023-06-10T09:21:23;6.50;;;5.18;;
19137;SDS011;68178;52.188;5.598;2023-06-10T09:23:49;5.75;;;4.65;;
19137;SDS011;68178;52.188;5.598;2023-06-10T09:26:15;6.32;;;4.70;;
19137;SDS011;68178;52.188;5.598;2023-06-10T09:28:44;9.13;;;5.50;;
19137;SDS011;68178;52.188;5.598;2023-06-10T09:31:13;7.55;;;4.68;;
19137;SDS011;68178;52.188;5.598;2023-06-10T09:33:43;7.13;;;5.35;;
19137;SDS011;68178;52.188;5.598;2023-06-10T09:36:11;6.63;;;5.20;;
19137;SDS011;68178;52.188;5.598;2023-06-10T09:38:46;7.30;;;5.40;;
19137;SDS011;68178;52.188;5.598;2023-06-10T09:41:14;7.72;;;4.60;;
19137;SDS011;68178;52.188;5.598;2023-06-10T09:43:41;7.95;;;5.47;;
19137;SDS011;68178;52.188;5.598;2023-06-10T09:46:19;7.95;;;5.45;;
19137;SDS011;68178;52.188;5.598;2023-06-10T09:48:46;10.68;;;5.82;;
19137;SDS011;68178;52.188;5.598;2023-06-10T09:51:13;6.97;;;4.85;;
19137;SDS011;68178;52.188;5.598;2023-06-10T09:53:39;7.03;;;5.15;;
19137;SDS011;68178;52.188;5.598;2023-06-10T09:56:05;4.82;;;4.43;;
19137;SDS011;68178;52.188;5.598;2023-06-10T09:58:37;8.45;;;5.05;;
19137;SDS011;68178;52.188;5.598;2023-06-10T10:01:04;8.02;;;4.90;;
19137;SDS011;68178;52.188;5.598;2023-06-10T10:03:31;9.05;;;5.03;;
19137;SDS011;68178;52.188;5.598;2023-06-10T10:06:00;5.18;;;4.68;;
19137;SDS011;68178;52.188;5.598;2023-06-10T10:08:25;4.47;;;4.15;;
19137;SDS011;68178;52.188;5.598;2023-06-10T10:10:51;5.57;;;4.60;;
19137;SDS011;68178;52.188;5.598;2023-06-10T10:13:17;5.97;;;4.70;;
19137;SDS011;68178;52.188;5.598;2023-06-10T10:15:43;6.57;;;4.68;;
19137;SDS011;68178;52.188;5.598;2023-06-10T10:18:11;5.15;;;4.60;;
19137;SDS011;68178;52.188;5.598;2023-06-10T10:20:45;5.10;;;4.60;;
19137;SDS011;68178;52.188;5.598;2023-06-10T10:23:16;5.28;;;4.32;;
19137;SDS011;68178;52.188;5.598;2023-06-10T10:25:49;8.07;;;5.13;;
19137;SDS011;68178;52.188;5.598;2023-06-10T10:28:18;5.15;;;4.32;;
19137;SDS011;68178;52.188;5.598;2023-06-10T10:30:48;4.65;;;4.10;;
19137;SDS011;68178;52.188;5.598;2023-06-10T10:36:05;6.75;;;5.15;;
19137;SDS011;68178;52.188;5.598;2023-06-10T10:38:32;7.97;;;4.30;;
19137;SDS011;68178;52.188;5.598;2023-06-10T10:40:59;7.47;;;4.57;;
19137;SDS011;68178;52.188;5.598;2023-06-10T10:43:26;6.97;;;4.35;;
19137;SDS011;68178;52.188;5.598;2023-06-10T10:45:59;5.25;;;4.60;;
19137;SDS011;68178;52.188;5.598;2023-06-10T10:48:26;4.65;;;4.25;;
19137;SDS011;68178;52.188;5.598;2023-06-10T10:50:58;6.57;;;5.15;;
19137;SDS011;68178;52.188;5.598;2023-06-10T10:53:24;6.20;;;4.90;;
19137;SDS011;68178;52.188;5.598;2023-06-10T10:56:03;6.68;;;4.22;;
19137;SDS011;68178;52.188;5.598;2023-06-10T10:58:30;6.28;;;4.75;;
19137;SDS011;68178;52.188;5.598;2023-06-10T11:00:57;4.95;;;4.55;;
19137;SDS011;68178;52.188;5.598;2023-06-10T11:03:22;5.75;;;4.47;;
19137;SDS011;68178;52.188;5.598;2023-06-10T11:05:56;6.70;;;4.85;;
19137;SDS011;68178;52.188;5.598;2023-06-10T11:10:58;8.48;;;4.57;;
19137;SDS011;68178;52.188;5.598;2023-06-10T11:13:23;7.28;;;4.78;;
19137;SDS011;68178;52.188;5.598;2023-06-10T11:15:51;5.15;;;4.65;;
19137;SDS011;68178;52.188;5.598;2023-06-10T11:18:30;8.52;;;4.57;;
19137;SDS011;68178;52.188;5.598;2023-06-10T11:21:04;6.45;;;4.78;;
19137;SDS011;68178;52.188;5.598;2023-06-10T11:23:32;5.05;;;4.55;;
19137;SDS011;68178;52.188;5.598;2023-06-10T11:26:14;5.38;;;4.80;;
19137;SDS011;68178;52.188;5.598;2023-06-10T11:31:23;8.80;;;4.45;;
19137;SDS011;68178;52.188;5.598;2023-06-10T11:33:54;4.95;;;4.28;;
19137;SDS011;68178;52.188;5.598;2023-06-10T11:36:28;4.72;;;4.28;;
19137;SDS011;68178;52.188;5.598;2023-06-10T11:38:57;5.47;;;4.45;;
19137;SDS011;68178;52.188;5.598;2023-06-10T11:41:30;5.50;;;4.97;;
19137;SDS011;68178;52.188;5.598;2023-06-10T11:43:57;5.13;;;4.68;;
19137;SDS011;68178;52.188;5.598;2023-06-10T11:46:32;5.13;;;4.68;;
19137;SDS011;68178;52.188;5.598;2023-06-10T11:48:58;6.15;;;4.90;;
19137;SDS011;68178;52.188;5.598;2023-06-10T11:51:25;5.32;;;4.82;;
19137;SDS011;68178;52.188;5.598;2023-06-10T11:53:52;5.93;;;4.97;;
19137;SDS011;68178;52.188;5.598;2023-06-10T11:56:28;5.05;;;4.65;;
19137;SDS011;68178;52.188;5.598;2023-06-10T11:58:56;5.25;;;4.72;;
19137;SDS011;68178;52.188;5.598;2023-06-10T12:01:22;4.93;;;4.53;;
19137;SDS011;68178;52.188;5.598;2023-06-10T12:04:02;6.53;;;5.25;;
19137;SDS011;68178;52.188;5.598;2023-06-10T12:12:00;5.18;;;4.78;;
19137;SDS011;68178;52.188;5.598;2023-06-10T12:17:20;5.35;;;4.85;;
19137;SDS011;68178;52.188;5.598;2023-06-10T12:19:47;7.75;;;4.40;;
19137;SDS011;68178;52.188;5.598;2023-06-10T12:22:13;5.53;;;5.03;;
19137;SDS011;68178;52.188;5.598;2023-06-10T12:24:45;6.97;;;5.07;;
19137;SDS011;68178;52.188;5.598;2023-06-10T12:27:24;6.20;;;5.22;;
19137;SDS011;68178;52.188;5.598;2023-06-10T12:29:52;5.00;;;4.60;;
19137;SDS011;68178;52.188;5.598;2023-06-10T12:32:34;6.75;;;5.57;;
19137;SDS011;68178;52.188;5.598;2023-06-10T12:35:06;5.63;;;5.10;;
19137;SDS011;68178;52.188;5.598;2023-06-10T12:37:33;5.30;;;4.88;;
19137;SDS011;68178;52.188;5.598;2023-06-10T12:39:59;6.68;;;5.20;;
19137;SDS011;68178;52.188;5.598;2023-06-10T12:42:27;6.03;;;5.18;;
19137;SDS011;68178;52.188;5.598;2023-06-10T12:44:54;8.32;;;5.50;;
19137;SDS011;68178;52.188;5.598;2023-06-10T12:47:28;5.55;;;5.13;;
19137;SDS011;68178;52.188;5.598;2023-06-10T12:50:03;7.68;;;5.28;;
19137;SDS011;68178;52.188;5.598;2023-06-10T12:52:30;7.28;;;5.20;;
19137;SDS011;68178;52.188;5.598;2023-06-10T12:54:55;5.53;;;4.65;;
19137;SDS011;68178;52.188;5.598;2023-06-10T12:57:22;5.57;;;4.85;;
19137;SDS011;68178;52.188;5.598;2023-06-10T12:59:48;5.32;;;4.82;;
19137;SDS011;68178;52.188;5.598;2023-06-10T13:02:20;4.65;;;4.25;;
19137;SDS011;68178;52.188;5.598;2023-06-10T13:04:49;6.20;;;5.20;;
19137;SDS011;68178;52.188;5.598;2023-06-10T13:07:15;5.35;;;4.95;;
19137;SDS011;68178;52.188;5.598;2023-06-10T13:09:41;5.22;;;4.80;;
19137;SDS011;68178;52.188;5.598;2023-06-10T13:12:08;5.00;;;4.50;;
19137;SDS011;68178;52.188;5.598;2023-06-10T13:14:34;7.28;;;4.95;;
19137;SDS011;68178;52.188;5.598;2023-06-10T13:16:59;5.70;;;5.07;;
19137;SDS011;68178;52.188;5.598;2023-06-10T13:19:25;7.72;;;4.85;;
19137;SDS011;68178;52.188;5.598;2023-06-10T13:21:51;5.75;;;4.53;;
19137;SDS011;68178;52.188;5.598;2023-06-10T13:24:17;5.10;;;4.70;;
19137;SDS011;68178;52.188;5.598;2023-06-10T13:26:42;5.40;;;4.90;;
19137;SDS011;68178;52.188;5.598;2023-06-10T13:29:08;5.60;;;4.82;;
19137;SDS011;68178;52.188;5.598;2023-06-10T13:31:39;8.55;;;5.03;;
19137;SDS011;68178;52.188;5.598;2023-06-10T13:34:05;5.82;;;5.28;;
19137;SDS011;68178;52.188;5.598;2023-06-10T13:36:31;5.53;;;4.97;;
19137;SDS011;68178;52.188;5.598;2023-06-10T13:38:57;5.75;;;5.15;;
19137;SDS011;68178;52.188;5.598;2023-06-10T13:41:22;6.13;;;5.25;;
19137;SDS011;68178;52.188;5.598;2023-06-10T13:43:48;5.10;;;4.68;;
19137;SDS011;68178;52.188;5.598;2023-06-10T13:46:13;5.82;;;5.10;;
19137;SDS011;68178;52.188;5.598;2023-06-10T13:48:39;5.15;;;4.57;;
19137;SDS011;68178;52.188;5.598;2023-06-10T13:51:05;5.30;;;4.80;;
19137;SDS011;68178;52.188;5.598;2023-06-10T13:53:31;5.03;;;4.63;;
19137;SDS011;68178;52.188;5.598;2023-06-10T13:55:56;5.85;;;5.43;;
19137;SDS011;68178;52.188;5.598;2023-06-10T13:58:22;5.85;;;5.10;;
19137;SDS011;68178;52.188;5.598;2023-06-10T14:00:48;6.22;;;5.13;;
19137;SDS011;68178;52.188;5.598;2023-06-10T14:03:13;4.72;;;4.25;;
19137;SDS011;68178;52.188;5.598;2023-06-10T14:05:39;6.30;;;4.55;;
19137;SDS011;68178;52.188;5.598;2023-06-10T14:08:05;7.78;;;4.65;;
19137;SDS011;68178;52.188;5.598;2023-06-10T14:10:30;6.60;;;4.75;;
19137;SDS011;68178;52.188;5.598;2023-06-10T14:12:56;5.38;;;4.82;;
19137;SDS011;68178;52.188;5.598;2023-06-10T14:15:21;6.50;;;4.80;;
19137;SDS011;68178;52.188;5.598;2023-06-10T14:17:47;5.15;;;4.65;;
19137;SDS011;68178;52.188;5.598;2023-06-10T14:20:12;5.90;;;5.30;;
19137;SDS011;68178;52.188;5.598;2023-06-10T14:22:38;7.97;;;5.07;;
19137;SDS011;68178;52.188;5.598;2023-06-10T14:25:03;4.88;;;4.47;;
19137;SDS011;68178;52.188;5.598;2023-06-10T14:27:29;5.43;;;4.57;;
19137;SDS011;68178;52.188;5.598;2023-06-10T14:29:55;4.80;;;4.38;;
19137;SDS011;68178;52.188;5.598;2023-06-10T14:32:20;4.85;;;4.35;;
19137;SDS011;68178;52.188;5.598;2023-06-10T14:34:46;6.30;;;4.57;;
19137;SDS011;68178;52.188;5.598;2023-06-10T14:37:12;5.10;;;4.60;;
19137;SDS011;68178;52.188;5.598;2023-06-10T14:39:37;6.22;;;4.90;;
19137;SDS011;68178;52.188;5.598;2023-06-10T14:42:03;5.13;;;4.38;;
19137;SDS011;68178;52.188;5.598;2023-06-10T14:44:29;5.32;;;4.82;;
19137;SDS011;68178;52.188;5.598;2023-06-10T14:46:54;5.10;;;4.25;;
19137;SDS011;68178;52.188;5.598;2023-06-10T14:49:20;7.38;;;5.35;;
19137;SDS011;68178;52.188;5.598;2023-06-10T14:51:46;5.18;;;4.68;;
19137;SDS011;68178;52.188;5.598;2023-06-10T14:54:13;6.50;;;5.43;;
19137;SDS011;68178;52.188;5.598;2023-06-10T14:56:38;5.00;;;4.50;;
19137;SDS011;68178;52.188;5.598;2023-06-10T14:59:04;5.78;;;4.60;;
19137;SDS011;68178;52.188;5.598;2023-06-10T15:01:29;5.25;;;4.78;;
19137;SDS011;68178;52.188;5.598;2023-06-10T15:03:55;6.38;;;4.82;;